createdAt,value
2017-02-13T13:32:39.348Z,145
2017-02-13T13:33:48.071Z,145
2017-02-13T13:34:56.826Z,145
2017-02-13T13:36:05.967Z,150
2017-02-13T13:37:14.676Z,150
2017-02-13T13:38:23.442Z,150
2017-02-13T13:39:32.191Z,145
2017-02-13T13:40:40.911Z,145
2017-02-13T13:41:50.032Z,145
2017-02-13T13:42:58.786Z,145
2017-02-13T13:44:07.505Z,145
2017-02-13T13:45:16.220Z,145
2017-02-13T13:46:25.354Z,150
2017-02-13T13:47:34.084Z,145
2017-02-13T13:48:43.229Z,145
2017-02-13T13:49:51.980Z,140
2017-02-13T13:51:01.089Z,140
2017-02-13T13:52:10.226Z,140
2017-02-13T13:53:18.983Z,140
2017-02-13T13:54:27.719Z,140
2017-02-13T13:55:36.451Z,140
2017-02-13T13:56:45.591Z,140
2017-02-13T13:57:54.301Z,140
2017-02-13T13:59:03.448Z,135
2017-02-13T14:00:12.168Z,140
2017-02-13T14:01:20.924Z,140
2017-02-13T14:02:30.441Z,135
2017-02-13T14:03:39.189Z,135
2017-02-13T14:04:47.922Z,135
2017-02-13T14:05:56.710Z,135
2017-02-13T14:07:05.414Z,135
2017-02-13T14:08:14.542Z,130
2017-02-13T14:09:23.686Z,130
2017-02-13T14:10:32.406Z,130
2017-02-13T14:11:41.152Z,130
2017-02-13T14:12:49.885Z,130
2017-02-13T14:13:58.594Z,125
2017-02-13T14:15:07.321Z,125
2017-02-13T14:16:16.066Z,125
2017-02-13T14:17:24.798Z,125
2017-02-13T14:18:33.552Z,125
2017-02-13T14:19:42.270Z,120
2017-02-13T14:20:51.008Z,120
2017-02-13T14:21:59.770Z,120
2017-02-13T14:23:08.893Z,120
2017-02-13T14:24:18.021Z,125
2017-02-13T14:25:26.769Z,125
2017-02-13T14:26:35.491Z,120
2017-02-13T14:27:44.657Z,120
2017-02-13T14:28:53.410Z,120
2017-02-13T14:30:02.574Z,120
2017-02-13T14:31:11.289Z,120
2017-02-13T14:32:20.072Z,115
2017-02-13T14:33:28.799Z,115
2017-02-13T14:34:37.520Z,115
2017-02-13T14:35:46.258Z,115
2017-02-13T14:36:54.992Z,115
2017-02-13T14:38:03.700Z,110
2017-02-13T14:39:12.436Z,110
2017-02-13T14:40:21.221Z,110
2017-02-13T14:41:29.939Z,110
2017-02-13T14:42:38.686Z,110
2017-02-13T14:43:47.846Z,110
2017-02-13T14:44:56.555Z,105
2017-02-13T14:46:05.295Z,105
2017-02-13T14:47:14.007Z,105
2017-02-13T14:48:23.130Z,105
2017-02-13T14:49:31.900Z,105
2017-02-13T14:50:40.639Z,100
2017-02-13T14:51:50.172Z,100
2017-02-13T14:52:58.916Z,100
2017-02-13T14:54:07.628Z,100
2017-02-13T14:55:16.368Z,100
2017-02-13T14:56:25.520Z,95
2017-02-13T14:57:34.234Z,95
2017-02-13T14:58:42.982Z,95
2017-02-13T14:59:51.716Z,95
2017-02-13T15:01:00.441Z,95
2017-02-13T15:02:09.192Z,90
2017-02-13T15:03:18.704Z,90
2017-02-13T15:04:27.427Z,90
2017-02-13T15:05:36.163Z,90
2017-02-13T15:06:45.286Z,90
2017-02-13T15:07:54.407Z,90
2017-02-13T15:09:03.562Z,85
2017-02-13T15:10:12.289Z,90
2017-02-13T15:11:21.021Z,90
2017-02-13T15:12:29.757Z,90
2017-02-13T15:13:38.498Z,90
2017-02-13T15:14:47.618Z,90
2017-02-13T15:15:56.339Z,85
2017-02-13T15:17:05.068Z,85
2017-02-13T15:18:13.839Z,85
2017-02-13T15:19:22.960Z,85
2017-02-13T15:20:31.681Z,80
2017-02-13T15:21:40.419Z,80
2017-02-13T15:22:49.142Z,80
2017-02-13T15:23:57.863Z,80
2017-02-13T15:25:06.649Z,80
2017-02-13T15:26:15.407Z,75
2017-02-13T15:27:24.135Z,75
2017-02-13T15:28:33.289Z,75
2017-02-13T15:29:42.013Z,75
2017-02-13T15:30:51.162Z,75
2017-02-13T15:31:59.885Z,75
2017-02-13T15:33:08.591Z,70
2017-02-13T15:34:17.341Z,70
2017-02-13T15:35:26.081Z,70
2017-02-13T15:36:34.802Z,70
2017-02-13T15:37:43.549Z,65
2017-02-13T15:38:52.279Z,65
2017-02-13T15:40:01.138Z,65
2017-02-13T15:41:10.294Z,65
2017-02-13T15:42:19.049Z,65
2017-02-13T15:43:27.794Z,60
2017-02-13T15:44:36.932Z,60
2017-02-13T15:45:45.643Z,60
2017-02-13T15:46:54.385Z,60
2017-02-13T15:48:03.116Z,60
2017-02-13T15:49:12.249Z,55
2017-02-13T15:50:20.974Z,55
2017-02-13T15:51:29.741Z,55
2017-02-13T15:52:38.451Z,55
2017-02-13T15:53:47.156Z,50
2017-02-13T15:54:55.916Z,50
2017-02-13T15:56:04.666Z,50
2017-02-13T15:57:13.388Z,50
2017-02-13T15:58:22.116Z,45
2017-02-13T15:59:30.830Z,45
2017-02-13T16:00:40.383Z,45
2017-02-13T16:01:49.140Z,45
2017-02-13T16:02:57.884Z,40
2017-02-13T16:04:07.030Z,40
2017-02-13T16:05:16.272Z,40
2017-02-13T16:06:24.995Z,40
2017-02-13T16:07:33.733Z,35
2017-02-13T16:08:42.481Z,35
2017-02-13T16:09:51.974Z,35
2017-02-13T16:11:00.715Z,35
2017-02-13T16:12:09.442Z,30
2017-02-13T16:13:18.178Z,30
2017-02-13T16:14:26.886Z,30
2017-02-13T16:15:35.592Z,30
2017-02-13T16:16:44.358Z,25
2017-02-13T16:17:53.101Z,25
2017-02-13T16:19:01.823Z,25
2017-02-13T16:20:10.947Z,25
2017-02-13T16:21:19.669Z,20
2017-02-13T16:22:28.391Z,20
2017-02-13T16:23:37.126Z,20
2017-02-13T16:24:45.856Z,20
2017-02-13T16:25:55.002Z,15
2017-02-13T16:27:04.142Z,15
2017-02-13T16:28:12.885Z,15
2017-02-13T16:29:22.021Z,15
2017-02-13T16:30:30.731Z,15
2017-02-13T16:31:39.858Z,10
2017-02-13T16:32:48.578Z,10
2017-02-13T16:33:57.300Z,10
2017-02-13T16:35:06.447Z,10
2017-02-13T16:36:15.176Z,10
2017-02-13T16:37:24.686Z,5
2017-02-13T16:38:33.465Z,5
2017-02-13T16:39:42.197Z,5
2017-02-13T16:40:51.325Z,5
2017-02-13T16:42:00.043Z,5
2017-02-13T16:43:08.755Z,5
2017-02-13T16:44:17.502Z,5
2017-02-13T16:45:26.231Z,0
2017-02-13T16:46:34.968Z,0
2017-02-13T16:47:43.716Z,0
2017-02-13T16:48:52.453Z,0
2017-02-13T16:50:01.162Z,0
2017-02-13T16:51:09.886Z,0
2017-02-13T16:52:18.629Z,0
2017-02-13T16:53:27.337Z,0
2017-02-13T16:54:36.055Z,0
2017-02-13T16:55:44.794Z,0
2017-02-13T16:56:53.505Z,0
2017-02-13T16:58:02.650Z,0
2017-02-13T16:59:11.801Z,0
2017-02-13T17:00:20.511Z,0
2017-02-13T17:01:29.261Z,0
2017-02-13T17:02:37.993Z,0
2017-02-13T17:03:46.790Z,0
2017-02-13T17:04:55.504Z,0
2017-02-13T17:06:04.236Z,0
2017-02-13T17:07:12.949Z,0
2017-02-13T17:08:21.701Z,0
2017-02-13T17:09:30.819Z,0
2017-02-13T17:10:39.549Z,0
2017-02-13T17:11:48.298Z,0
2017-02-13T17:12:57.415Z,0
2017-02-13T17:14:06.148Z,0
2017-02-13T17:15:14.859Z,0
2017-02-13T17:16:23.981Z,0
2017-02-13T17:17:32.744Z,0
2017-02-13T17:18:41.863Z,0
2017-02-13T17:19:50.585Z,0
2017-02-13T17:20:59.327Z,0
2017-02-13T17:22:08.066Z,0
2017-02-13T17:23:16.811Z,0
2017-02-13T17:24:25.534Z,0
2017-02-13T17:25:34.670Z,0
2017-02-13T17:26:43.414Z,0
2017-02-13T17:27:52.171Z,0
2017-02-13T17:29:00.952Z,0
2017-02-13T17:30:09.659Z,0
2017-02-13T17:31:18.398Z,0
2017-02-13T17:32:27.544Z,0
2017-02-13T17:33:36.248Z,0
2017-02-13T17:34:45.002Z,0
2017-02-13T17:35:53.752Z,0
2017-02-13T17:37:02.474Z,0
2017-02-13T17:38:11.183Z,0
2017-02-13T17:39:20.721Z,0
2017-02-13T17:40:29.459Z,0
2017-02-13T17:41:38.573Z,0
2017-02-13T17:42:47.291Z,0
2017-02-13T17:43:56.406Z,0
2017-02-13T17:45:05.157Z,0
2017-02-13T17:46:13.872Z,0
2017-02-13T17:47:23.793Z,0
2017-02-13T17:48:32.538Z,0
2017-02-13T17:49:41.273Z,0
2017-02-13T17:50:49.972Z,0
2017-02-13T17:51:58.709Z,0
2017-02-13T17:53:07.436Z,0
2017-02-13T17:54:16.153Z,0
2017-02-13T17:55:24.886Z,0
2017-02-13T17:56:33.988Z,0
2017-02-13T17:57:42.730Z,0
2017-02-13T17:58:51.468Z,0
2017-02-13T18:00:00.586Z,0
2017-02-13T18:01:10.118Z,0
2017-02-13T18:02:19.259Z,0
2017-02-13T18:03:27.968Z,0
2017-02-13T18:04:36.724Z,0
2017-02-13T18:05:45.468Z,0
2017-02-13T18:06:54.173Z,0
2017-02-13T18:08:03.296Z,0
2017-02-13T18:09:12.028Z,0
2017-02-13T18:10:21.160Z,0
2017-02-13T18:11:29.908Z,0
2017-02-13T18:12:38.654Z,0
2017-02-13T18:13:47.390Z,0
2017-02-13T18:14:56.551Z,0
2017-02-13T18:16:05.270Z,0
2017-02-13T18:17:14.436Z,0
2017-02-13T18:18:23.178Z,0
2017-02-13T18:19:32.295Z,0
2017-02-13T18:20:41.011Z,0
2017-02-13T18:21:50.136Z,0
2017-02-13T18:22:58.858Z,0
2017-02-13T18:24:07.596Z,0
2017-02-13T18:25:16.741Z,0
2017-02-13T18:26:25.463Z,0
2017-02-13T18:27:34.191Z,0
2017-02-13T18:28:42.923Z,0
2017-02-13T18:29:51.642Z,0
2017-02-13T18:31:00.359Z,0
2017-02-13T18:32:09.128Z,0
2017-02-13T18:33:18.250Z,0
2017-02-13T18:34:26.956Z,0
2017-02-13T18:35:35.682Z,0
2017-02-13T18:36:44.416Z,0
2017-02-13T18:37:53.133Z,0
2017-02-13T18:39:01.846Z,0
2017-02-13T18:40:10.574Z,0
2017-02-13T18:41:19.719Z,0
2017-02-13T18:42:28.473Z,0
2017-02-13T18:43:37.192Z,0
2017-02-13T18:44:45.920Z,0
2017-02-13T18:45:54.652Z,0
2017-02-13T18:47:04.154Z,0
2017-02-13T18:48:13.283Z,0
2017-02-13T18:49:22.012Z,0
2017-02-13T18:50:31.139Z,0
2017-02-13T18:51:39.880Z,0
2017-02-13T18:52:48.611Z,0
2017-02-13T18:53:57.328Z,0
2017-02-13T18:55:06.064Z,0
2017-02-13T18:56:14.805Z,0
2017-02-13T18:57:23.517Z,0
2017-02-13T18:58:32.239Z,0
2017-02-13T18:59:40.962Z,0
2017-02-13T19:00:49.685Z,0
2017-02-13T19:01:58.487Z,0
2017-02-13T19:03:07.632Z,0
2017-02-13T19:04:16.350Z,0
2017-02-13T19:05:25.096Z,0
2017-02-13T19:06:33.829Z,0
2017-02-13T19:07:42.563Z,0
2017-02-13T19:08:51.292Z,0
2017-02-13T19:10:00.003Z,0
2017-02-13T19:11:08.762Z,0
2017-02-13T19:12:17.489Z,0
2017-02-13T19:13:26.599Z,0
2017-02-13T19:14:35.727Z,0
2017-02-13T19:15:44.479Z,0
2017-02-13T19:16:53.217Z,0
2017-02-13T19:18:01.944Z,0
2017-02-13T19:19:10.699Z,0
2017-02-13T19:20:19.413Z,0
2017-02-13T19:21:28.546Z,0
2017-02-13T19:22:37.281Z,0
2017-02-13T19:23:45.991Z,0
2017-02-13T19:24:54.719Z,0
2017-02-13T19:26:03.428Z,0
2017-02-13T19:27:12.566Z,0
2017-02-13T19:28:21.301Z,0
2017-02-13T19:29:30.044Z,0
2017-02-13T19:30:38.754Z,0
2017-02-13T19:31:47.486Z,0
2017-02-13T19:32:56.602Z,0
2017-02-13T19:34:05.314Z,0
2017-02-13T19:35:14.064Z,0
2017-02-13T19:36:22.781Z,0
2017-02-13T19:37:31.493Z,0
2017-02-13T19:38:40.235Z,0
2017-02-13T19:39:48.995Z,0
2017-02-13T19:40:57.731Z,0
2017-02-13T19:42:06.453Z,0
2017-02-13T19:43:15.202Z,0
2017-02-13T19:44:23.950Z,0
2017-02-13T19:45:32.678Z,0
2017-02-13T19:46:41.385Z,0
2017-02-13T19:47:50.160Z,0
2017-02-13T19:48:58.882Z,0
2017-02-13T19:50:07.591Z,0
2017-02-13T19:51:16.737Z,0
2017-02-13T19:52:25.463Z,0
2017-02-13T19:53:34.184Z,0
2017-02-13T19:54:43.302Z,0
2017-02-13T19:55:52.008Z,0
2017-02-13T19:57:00.733Z,0
2017-02-13T19:58:09.887Z,0
2017-02-13T19:59:19.003Z,0
2017-02-13T20:00:27.737Z,0
2017-02-13T20:01:36.511Z,0
2017-02-13T20:02:45.242Z,0
2017-02-13T20:03:53.970Z,0
2017-02-13T20:05:02.712Z,0
2017-02-13T20:06:11.835Z,0
2017-02-13T20:07:20.579Z,0
2017-02-13T20:08:29.346Z,0
2017-02-13T20:09:38.086Z,0
2017-02-13T20:10:46.808Z,0
2017-02-13T20:11:55.520Z,0
2017-02-13T20:13:04.305Z,0
2017-02-13T20:14:13.053Z,0
2017-02-13T20:15:21.763Z,0
2017-02-13T20:16:30.875Z,0
2017-02-13T20:17:39.617Z,0
2017-02-13T20:18:48.348Z,0
2017-02-13T20:19:57.448Z,0
2017-02-13T20:21:06.239Z,0
2017-02-13T20:22:14.964Z,0
2017-02-13T20:23:23.689Z,0
2017-02-13T20:24:32.428Z,0
2017-02-13T20:25:41.564Z,0
2017-02-13T20:26:50.283Z,0
2017-02-13T20:27:59.036Z,0
2017-02-13T20:29:07.778Z,0
2017-02-13T20:30:16.551Z,0
2017-02-13T20:31:25.316Z,0
2017-02-13T20:32:34.076Z,0
2017-02-13T20:33:43.214Z,0
2017-02-13T20:34:51.936Z,0
2017-02-13T20:36:00.659Z,0
2017-02-13T20:37:09.375Z,0
2017-02-13T20:38:18.094Z,0
2017-02-13T20:39:26.817Z,0
2017-02-13T20:40:35.563Z,0
2017-02-13T20:41:44.314Z,0
2017-02-13T20:42:53.442Z,0
2017-02-13T20:44:02.173Z,0
2017-02-13T20:45:11.325Z,0
2017-02-13T20:46:20.032Z,0
2017-02-13T20:47:29.162Z,0
2017-02-13T20:48:38.301Z,0
2017-02-13T20:49:47.035Z,0
2017-02-13T20:50:55.748Z,0
2017-02-13T20:52:04.891Z,0
2017-02-13T20:53:13.602Z,0
2017-02-13T20:54:22.359Z,0
2017-02-13T20:55:31.471Z,0
2017-02-13T20:56:40.181Z,0
2017-02-13T20:57:49.313Z,0
2017-02-13T20:58:58.443Z,0
2017-02-13T21:00:07.156Z,0
2017-02-13T21:01:15.901Z,0
2017-02-13T21:02:24.650Z,0
2017-02-13T21:03:33.365Z,0
2017-02-13T21:04:42.140Z,0
2017-02-13T21:05:50.876Z,0
2017-02-13T21:06:59.587Z,0
2017-02-13T21:08:08.297Z,0
2017-02-13T21:09:17.039Z,0
2017-02-13T21:10:25.766Z,0
2017-02-13T21:11:34.887Z,0
2017-02-13T21:12:43.599Z,0
2017-02-13T21:13:52.335Z,0
2017-02-13T21:15:01.062Z,0
2017-02-13T21:16:09.783Z,0
2017-02-13T21:17:18.923Z,0
2017-02-13T21:18:27.649Z,0
2017-02-13T21:19:36.754Z,0
2017-02-13T21:20:45.477Z,0
2017-02-13T21:21:54.201Z,0
2017-02-13T21:23:02.927Z,0
2017-02-13T21:24:12.045Z,0
2017-02-13T21:25:21.163Z,0
2017-02-13T21:26:29.894Z,0
2017-02-13T21:27:39.430Z,0
2017-02-13T21:28:48.202Z,0
2017-02-13T21:29:57.309Z,0
2017-02-13T21:31:06.048Z,0
2017-02-13T21:32:14.761Z,0
2017-02-13T21:33:23.478Z,0
2017-02-13T21:34:32.215Z,0
2017-02-13T21:35:41.345Z,0
2017-02-13T21:36:50.513Z,0
2017-02-13T21:37:59.248Z,0
2017-02-13T21:39:08.002Z,0
2017-02-13T21:40:17.129Z,0
2017-02-13T21:41:25.856Z,0
2017-02-13T21:42:34.580Z,0
2017-02-13T21:43:43.322Z,0
2017-02-13T21:44:52.466Z,0
2017-02-13T21:46:01.170Z,0
2017-02-13T21:47:09.906Z,0
2017-02-13T21:48:18.626Z,0
2017-02-13T21:49:27.735Z,0
2017-02-13T21:50:37.273Z,0
2017-02-13T21:51:46.019Z,0
2017-02-13T21:52:54.745Z,0
2017-02-13T21:54:03.457Z,0
2017-02-13T21:55:12.185Z,0
2017-02-13T21:56:20.930Z,0
2017-02-13T21:57:29.659Z,0
2017-02-13T21:58:38.745Z,0
2017-02-13T21:59:47.879Z,0
2017-02-13T22:00:57.000Z,0
2017-02-13T22:02:05.713Z,0
2017-02-13T22:03:14.430Z,0
2017-02-13T22:04:23.171Z,0
2017-02-13T22:05:31.874Z,0
2017-02-13T22:06:40.601Z,0
2017-02-13T22:07:49.323Z,0
2017-02-13T22:08:58.458Z,0
2017-02-13T22:10:07.207Z,0
2017-02-13T22:11:15.909Z,0
2017-02-13T22:12:24.635Z,0
2017-02-13T22:13:33.376Z,0
2017-02-13T22:14:42.494Z,0
2017-02-13T22:15:51.206Z,0
2017-02-13T22:16:59.943Z,0
2017-02-13T22:18:08.664Z,0
2017-02-13T22:19:17.371Z,0
2017-02-13T22:20:26.101Z,0
2017-02-13T22:21:35.240Z,0
2017-02-13T22:22:44.779Z,0
2017-02-13T22:23:53.913Z,0
2017-02-13T22:25:02.658Z,0
2017-02-13T22:26:11.378Z,0
2017-02-13T22:27:20.122Z,0
2017-02-13T22:28:28.843Z,0
2017-02-13T22:29:37.569Z,0
2017-02-13T22:30:46.292Z,0
2017-02-13T22:31:55.016Z,0
2017-02-13T22:33:03.735Z,0
2017-02-13T22:34:12.452Z,0
2017-02-13T22:35:21.162Z,0
2017-02-13T22:36:29.904Z,0
2017-02-13T22:37:38.642Z,0
2017-02-13T22:38:47.766Z,0
2017-02-13T22:39:56.515Z,0
2017-02-13T22:41:05.257Z,0
2017-02-13T22:42:13.988Z,0
2017-02-13T22:43:23.146Z,0
2017-02-13T22:44:31.895Z,0
2017-02-13T22:45:40.650Z,0
2017-02-13T22:46:49.371Z,0
2017-02-13T22:47:58.534Z,0
2017-02-13T22:49:07.281Z,0
2017-02-13T22:50:16.017Z,0
2017-02-13T22:51:24.726Z,0
2017-02-13T22:52:33.848Z,0
2017-02-13T22:53:42.969Z,0
2017-02-13T22:54:51.696Z,0
2017-02-13T22:56:00.405Z,0
2017-02-13T22:57:09.143Z,0
2017-02-13T22:58:17.846Z,0
2017-02-13T22:59:26.939Z,0
2017-02-13T23:00:35.666Z,0
2017-02-13T23:01:45.189Z,0
2017-02-13T23:02:53.914Z,0
2017-02-13T23:04:03.042Z,0
2017-02-13T23:05:11.764Z,0
2017-02-13T23:06:20.519Z,0
2017-02-13T23:07:29.243Z,0
2017-02-13T23:08:37.964Z,0
2017-02-13T23:09:47.094Z,0
2017-02-13T23:10:55.812Z,0
2017-02-13T23:12:04.536Z,0
2017-02-13T23:13:13.276Z,0
2017-02-13T23:14:22.008Z,0
2017-02-13T23:15:30.717Z,0
2017-02-13T23:16:39.875Z,0
2017-02-13T23:17:48.998Z,0
2017-02-13T23:18:57.700Z,0
2017-02-13T23:20:06.451Z,0
2017-02-13T23:21:15.547Z,0
2017-02-13T23:22:24.276Z,0
2017-02-13T23:23:33.017Z,0
2017-02-13T23:24:42.113Z,0
2017-02-13T23:25:50.840Z,0
2017-02-13T23:26:59.961Z,0
2017-02-13T23:28:08.683Z,0
2017-02-13T23:29:17.798Z,0
2017-02-13T23:30:26.565Z,0
2017-02-13T23:31:35.669Z,0
2017-02-13T23:32:44.388Z,0
2017-02-13T23:33:53.139Z,0
2017-02-13T23:35:01.851Z,0
2017-02-13T23:36:11.006Z,0
2017-02-13T23:37:19.727Z,0
2017-02-13T23:38:28.862Z,0
2017-02-13T23:39:37.608Z,0
2017-02-13T23:40:46.725Z,0
2017-02-13T23:41:55.424Z,0
2017-02-13T23:43:04.176Z,0
2017-02-13T23:44:12.919Z,0
2017-02-13T23:45:21.647Z,0
2017-02-13T23:46:30.400Z,0
2017-02-13T23:47:39.122Z,0
2017-02-13T23:48:47.858Z,0
2017-02-13T23:49:56.573Z,0
2017-02-13T23:51:05.288Z,0
2017-02-13T23:52:14.057Z,0
2017-02-13T23:53:22.768Z,0
2017-02-13T23:54:31.479Z,0
2017-02-13T23:55:40.622Z,0
2017-02-13T23:56:50.134Z,0
2017-02-13T23:57:59.252Z,0
2017-02-13T23:59:08.002Z,0
